ELNO2: N. Canadian River, El Reno, OK

Data processed at Fri Jan 05 2018 23:24


All information presented herein is the property of the government of the United States of America and may be revised or deleted at any time without prior notice.
Dissemination of this information without the expressed written consent of the Public Affairs Office, Tulsa District U.S. Army Corps of Engineers is strictly prohibited.
These data are gathered electronically and, as presented, have not undergone any form of quality control. These data are not guaranteed to be valid or correct.
Go to home page.
Go to station list.

Upstream stations:

Downstream station:
Previous Day
Next Day
Current Day
    
SHEF ID:       ELNO2     North Canadian River near El Ren
STATION TYPE:  

               PRECIP     STAGE  STAGE(2)  RIV-FLOW  WTR-TEMP   CONDUCT  BAT-LOAD
                   in        ft        ft       cfs         F   umho/cm      volt
              Ccp-Rev   Ccp-Rev   Ccp-Rev   Ccp-Rev   Ccp-Rev   Ccp-Rev   Ccp-Rev
(US/Central)
01/03 00:00      0.00     37.80      ----      ----     31.51      1713     12.49
01/03 01:00      0.00      4.00      ----        72     31.51      1720     12.49
01/03 02:00      0.00      4.03      ----        75     31.51      1729     12.41
01/03 03:00      0.00      4.02      ----        74     31.51      1736     12.41
01/03 04:00      0.00      3.98      ----        70     31.51      1738     12.41
01/03 05:00      0.00      3.94      ----        66     31.51      1749     12.33
01/03 06:00      0.00      3.93      ----        65     31.51      1761     12.33
01/03 07:00      0.00      3.90      ----        62     31.51      1772     12.33
01/03 08:00      0.00     37.80      ----      ----     31.51      1784     12.25
01/03 09:00      0.00     37.80      ----      ----     31.53      1788     13.05
01/03 10:00      0.00     37.80      ----      ----     31.59      1784     13.44
01/03 11:00      0.00     37.80      ----      ----     31.69      1779     13.37
01/03 12:00      0.00      4.14      ----        87     31.84      1757     13.44
01/03 13:00      0.00      4.08      ----        81     31.98      1735     13.44
01/03 14:00      0.00      3.98      ----        70     32.05      1714     13.44
01/03 15:00      0.00      3.98      ----        70     32.02      1693     13.44
01/03 16:00      0.00      3.97      ----        69     31.91      1680     13.21
01/03 17:00      0.00      3.93      ----        65     31.75      1668     13.21
01/03 18:00      0.00      3.89      ----        61     31.62      1669     12.97
01/03 19:00      0.00      3.89      ----        61     31.57      1661     12.89
01/03 20:00      0.00      3.89      ----        61     31.53      1682     12.81
01/03 21:00      0.00      3.81      ----        54     31.51      1671     12.73
01/03 22:00      0.00      3.81      ----        54     31.51      1676     12.73
01/03 23:00      0.00      3.78      ----        51     31.51      1669     12.65